Masuei Maru No41 — JD2285 — position and weather

sailwx.info

Track history (hours):
 
Tides and Currents Weather Stations Pressure Air Temp Water Temp Dewpoint Dewpoint Depression Visibility Wind Speed Wind Dir Waves Ship Positions

Masuei Maru No41

Last reported at 2018-Jul-18 00:45 UTC. Time now 2018-Jul-18 04:56 UTC.
Position N 34°13' E 135°09'.

Length 32 m.

Type: Tug. MMSI: 431301814.

Date/timePositionNaut miles runAvg speedWind from/ knotsBaromVisibWave heightAir tempDewpointWater temp
2018-Jul-18 00:45N 34°13' E 135°09'2 7.0
2018-Jul-18 00:30N 34°13' E 135°07'6 6.4
2018-Jul-17 23:33N 34°07' E 135°07'2 9.2
2018-Jul-17 23:22N 34°08' E 135°07'511.1
2018-Jul-17 22:57N 34°13' E 135°07'2 3.3
2018-Jul-17 22:29N 34°13' E 135°09'1 0.1
2018-Jul-16 23:30N 34°13' E 135°07'1 1.9
2018-Jul-16 22:59N 34°12' E 135°08'1 1.3
2018-Jul-16 22:29N 34°13' E 135°09'0 0.7
2018-Jul-16 22:00N 34°13' E 135°09'  
2018-Jul-14 13:00N 34°13' E 135°09'2 4.6
2018-Jul-14 12:30N 34°14' E 135°06'1 1.3
2018-Jul-14 11:36N 34°14' E 135°07'0 1.7
2018-Jul-14 11:29N 34°14' E 135°07'1 1.7
2018-Jul-14 10:59N 34°14' E 135°06'2 3.9
2018-Jul-14 10:30N 34°13' E 135°06'2 3.7
2018-Jul-14 09:59N 34°14' E 135°08'0 0.5
2018-Jul-14 09:30N 34°14' E 135°07'2 3.3
2018-Jul-14 09:00N 34°13' E 135°09'0 0.0
2018-Jul-14 04:22N 34°13' E 135°09'3 6.8
2018-Jul-14 03:59N 34°11' E 135°07'3 2.2
2018-Jul-14 02:25N 34°08' E 135°07'511.3
2018-Jul-14 01:58N 34°13' E 135°07'1 3.1
2018-Jul-14 01:29N 34°13' E 135°09'0 0.0
2018-Jul-14 00:59N 34°13' E 135°09'0 0.0
2018-Jul-14 00:29N 34°13' E 135°09'1 2.0
2018-Jul-14 00:00N 34°12' E 135°08'0 0.0
2018-Jul-13 23:30N 34°12' E 135°08'1 1.7
2018-Jul-13 22:58N 34°13' E 135°08'2 4.6
2018-Jul-13 22:30N 34°14' E 135°05'0 0.9
2018-Jul-13 22:00N 34°13' E 135°05'3 5.4
2018-Jul-13 21:30N 34°13' E 135°09'0 0.0
2018-Jul-13 05:40N 34°13' E 135°09'1 6.7
2018-Jul-13 05:29N 34°13' E 135°08'610.5
2018-Jul-13 04:54N 34°07' E 135°07'0 0.0
2018-Jul-13 03:37N 34°07' E 135°07'0 2.1
2018-Jul-13 03:25N 34°07' E 135°06'1 1.7
2018-Jul-13 02:37N 34°08' E 135°06'2 7.7
2018-Jul-13 02:20N 34°07' E 135°08'2 0.6
2018-Jul-12 23:36N 34°08' E 135°07'511.8
2018-Jul-12 23:13N 34°13' E 135°07'2 7.5
2018-Jul-12 23:00N 34°13' E 135°09'0 0.0
2018-Jul-12 22:27N 34°13' E 135°09'0 0.0
2018-Jul-12 22:00N 34°13' E 135°09'0 0.0
2018-Jul-12 21:30N 34°13' E 135°09'0 0.0
2018-Jul-12 21:00N 34°13' E 135°09'0 0.0
2018-Jul-12 20:30N 34°13' E 135°09'0 0.0
2018-Jul-12 20:00N 34°13' E 135°09'0 0.0
2018-Jul-12 19:30N 34°13' E 135°09'0 0.0
2018-Jul-12 19:00N 34°13' E 135°09'0 0.0
2018-Jul-12 18:30N 34°13' E 135°09'0 0.0
2018-Jul-12 18:00N 34°13' E 135°09'0 0.0
2018-Jul-12 17:30N 34°13' E 135°09'0 0.0
2018-Jul-12 17:00N 34°13' E 135°09'0 0.0
2018-Jul-12 16:30N 34°13' E 135°09'0 0.0
2018-Jul-12 16:00N 34°13' E 135°09'0 0.0
2018-Jul-12 15:30N 34°13' E 135°09'0 0.0
2018-Jul-12 15:00N 34°13' E 135°09'0 0.0
2018-Jul-12 14:27N 34°13' E 135°09'0 0.0
2018-Jul-12 14:00N 34°13' E 135°09'0 0.0
2018-Jul-12 13:30N 34°13' E 135°09'0 0.0
2018-Jul-12 13:00N 34°13' E 135°09'0 0.0
2018-Jul-12 12:30N 34°13' E 135°09'0 0.0
2018-Jul-12 12:00N 34°13' E 135°09'0 0.0
2018-Jul-12 11:24N 34°13' E 135°09'0 0.0
2018-Jul-12 11:00N 34°13' E 135°09'0 0.0
2018-Jul-12 10:30N 34°13' E 135°09'0 0.0
2018-Jul-12 10:00N 34°13' E 135°09'0 0.0
2018-Jul-12 09:30N 34°13' E 135°09'0 0.0
2018-Jul-12 09:00N 34°13' E 135°09'0 0.0
2018-Jul-12 08:30N 34°13' E 135°09'0 0.0
2018-Jul-12 08:00N 34°13' E 135°09'0 0.0
2018-Jul-12 07:30N 34°13' E 135°09'0 0.0
2018-Jul-12 07:00N 34°13' E 135°09'0 0.0
2018-Jul-12 06:30N 34°13' E 135°09'0 0.0
2018-Jul-12 06:00N 34°13' E 135°09'0 0.0
2018-Jul-12 05:26N 34°13' E 135°09'4 8.3
2018-Jul-12 04:58N 34°10' E 135°07'3 4.2
2018-Jul-12 04:11N 34°07' E 135°07'0 0.0
2018-Jul-12 03:45N 34°07' E 135°07'0 0.2
2018-Jul-12 03:16N 34°07' E 135°06'1 1.7
2018-Jul-12 02:54N 34°07' E 135°06'2 2.2
2018-Jul-12 01:55N 34°09' E 135°05'4 9.9
2018-Jul-12 01:30N 34°13' E 135°08'1 1.7
2018-Jul-12 00:58N 34°13' E 135°09'0 0.0
2018-Jul-12 00:28N 34°13' E 135°09'0 0.1
2018-Jul-12 00:00N 34°13' E 135°09'3 6.2
2018-Jul-11 23:28N 34°11' E 135°07'2 0.1
2018-Jul-11 00:53N 34°13' E 135°07'2 3.7
2018-Jul-11 00:28N 34°13' E 135°09'1 2.7
2018-Jul-11 00:00N 34°13' E 135°08'0 0.2
2018-Jul-10 22:33N 34°13' E 135°08'0 7.1
2018-Jul-10 22:30N 34°13' E 135°08'1 1.3
2018-Jul-10 21:59N 34°13' E 135°09'0 0.0
2018-Jul-09 04:43N 34°13' E 135°09'1 6.4
2018-Jul-09 04:30N 34°13' E 135°07'6 1.3
2018-Jul-08 23:47N 34°07' E 135°07'711.7
2018-Jul-08 23:09N 34°14' E 135°05'1 8.0
2018-Jul-08 23:00N 34°14' E 135°07'0 1.0
2018-Jul-08 22:30N 34°14' E 135°07'2 3.2
2018-Jul-08 22:00N 34°14' E 135°06'2 3.7
2018-Jul-08 21:30N 34°13' E 135°06'2 3.7
2018-Jul-08 20:59N 34°14' E 135°08'1 1.3
2018-Jul-08 20:30N 34°14' E 135°07'2 3.9
2018-Jul-08 20:00N 34°13' E 135°09'1 0.1
2018-Jul-08 08:51N 34°13' E 135°08'  
Track history (hours):
 
Tides and Currents Weather Stations Pressure Air Temp Water Temp Dewpoint Dewpoint Depression Visibility Wind Speed Wind Dir Waves Ship Positions

Masuei Maru No41

Last reported at 2018-Jul-18 00:45 UTC. Time now 2018-Jul-18 04:56 UTC.
Position N 34°13' E 135°09'.

Length 32 m.

Type: Tug. MMSI: 431301814.

Date/timePositionNaut miles runAvg speedWind from/ knotsBaromVisibWave heightAir tempDewpointWater temp
2018-Jul-18 00:45N 34°13' E 135°09'2 7.0
2018-Jul-18 00:30N 34°13' E 135°07'6 6.4
2018-Jul-17 23:33N 34°07' E 135°07'2 9.2
2018-Jul-17 23:22N 34°08' E 135°07'511.1
2018-Jul-17 22:57N 34°13' E 135°07'2 3.3
2018-Jul-17 22:29N 34°13' E 135°09'1 0.1
2018-Jul-16 23:30N 34°13' E 135°07'1 1.9
2018-Jul-16 22:59N 34°12' E 135°08'1 1.3
2018-Jul-16 22:29N 34°13' E 135°09'0 0.7
2018-Jul-16 22:00N 34°13' E 135°09'  
2018-Jul-14 13:00N 34°13' E 135°09'2 4.6
2018-Jul-14 12:30N 34°14' E 135°06'1 1.3
2018-Jul-14 11:36N 34°14' E 135°07'0 1.7
2018-Jul-14 11:29N 34°14' E 135°07'1 1.7
2018-Jul-14 10:59N 34°14' E 135°06'2 3.9
2018-Jul-14 10:30N 34°13' E 135°06'2 3.7
2018-Jul-14 09:59N 34°14' E 135°08'0 0.5
2018-Jul-14 09:30N 34°14' E 135°07'2 3.3
2018-Jul-14 09:00N 34°13' E 135°09'0 0.0
2018-Jul-14 04:22N 34°13' E 135°09'3 6.8
2018-Jul-14 03:59N 34°11' E 135°07'3 2.2
2018-Jul-14 02:25N 34°08' E 135°07'511.3
2018-Jul-14 01:58N 34°13' E 135°07'1 3.1
2018-Jul-14 01:29N 34°13' E 135°09'0 0.0
2018-Jul-14 00:59N 34°13' E 135°09'0 0.0
2018-Jul-14 00:29N 34°13' E 135°09'1 2.0
2018-Jul-14 00:00N 34°12' E 135°08'0 0.0
2018-Jul-13 23:30N 34°12' E 135°08'1 1.7
2018-Jul-13 22:58N 34°13' E 135°08'2 4.6
2018-Jul-13 22:30N 34°14' E 135°05'0 0.9
2018-Jul-13 22:00N 34°13' E 135°05'3 5.4
2018-Jul-13 21:30N 34°13' E 135°09'0 0.0
2018-Jul-13 05:40N 34°13' E 135°09'1 6.7
2018-Jul-13 05:29N 34°13' E 135°08'610.5
2018-Jul-13 04:54N 34°07' E 135°07'0 0.0
2018-Jul-13 03:37N 34°07' E 135°07'0 2.1
2018-Jul-13 03:25N 34°07' E 135°06'1 1.7
2018-Jul-13 02:37N 34°08' E 135°06'2 7.7
2018-Jul-13 02:20N 34°07' E 135°08'2 0.6
2018-Jul-12 23:36N 34°08' E 135°07'511.8
2018-Jul-12 23:13N 34°13' E 135°07'2 7.5
2018-Jul-12 23:00N 34°13' E 135°09'0 0.0
2018-Jul-12 22:27N 34°13' E 135°09'0 0.0
2018-Jul-12 22:00N 34°13' E 135°09'0 0.0
2018-Jul-12 21:30N 34°13' E 135°09'0 0.0
2018-Jul-12 21:00N 34°13' E 135°09'0 0.0
2018-Jul-12 20:30N 34°13' E 135°09'0 0.0
2018-Jul-12 20:00N 34°13' E 135°09'0 0.0
2018-Jul-12 19:30N 34°13' E 135°09'0 0.0
2018-Jul-12 19:00N 34°13' E 135°09'0 0.0
2018-Jul-12 18:30N 34°13' E 135°09'0 0.0
2018-Jul-12 18:00N 34°13' E 135°09'0 0.0
2018-Jul-12 17:30N 34°13' E 135°09'0 0.0
2018-Jul-12 17:00N 34°13' E 135°09'0 0.0
2018-Jul-12 16:30N 34°13' E 135°09'0 0.0
2018-Jul-12 16:00N 34°13' E 135°09'0 0.0
2018-Jul-12 15:30N 34°13' E 135°09'0 0.0
2018-Jul-12 15:00N 34°13' E 135°09'0 0.0
2018-Jul-12 14:27N 34°13' E 135°09'0 0.0
2018-Jul-12 14:00N 34°13' E 135°09'0 0.0
2018-Jul-12 13:30N 34°13' E 135°09'0 0.0
2018-Jul-12 13:00N 34°13' E 135°09'0 0.0
2018-Jul-12 12:30N 34°13' E 135°09'0 0.0
2018-Jul-12 12:00N 34°13' E 135°09'0 0.0
2018-Jul-12 11:24N 34°13' E 135°09'0 0.0
2018-Jul-12 11:00N 34°13' E 135°09'0 0.0
2018-Jul-12 10:30N 34°13' E 135°09'0 0.0
2018-Jul-12 10:00N 34°13' E 135°09'0 0.0
2018-Jul-12 09:30N 34°13' E 135°09'0 0.0
2018-Jul-12 09:00N 34°13' E 135°09'0 0.0
2018-Jul-12 08:30N 34°13' E 135°09'0 0.0
2018-Jul-12 08:00N 34°13' E 135°09'0 0.0
2018-Jul-12 07:30N 34°13' E 135°09'0 0.0
2018-Jul-12 07:00N 34°13' E 135°09'0 0.0
2018-Jul-12 06:30N 34°13' E 135°09'0 0.0
2018-Jul-12 06:00N 34°13' E 135°09'0 0.0
2018-Jul-12 05:26N 34°13' E 135°09'4 8.3
2018-Jul-12 04:58N 34°10' E 135°07'3 4.2
2018-Jul-12 04:11N 34°07' E 135°07'0 0.0
2018-Jul-12 03:45N 34°07' E 135°07'0 0.2
2018-Jul-12 03:16N 34°07' E 135°06'1 1.7
2018-Jul-12 02:54N 34°07' E 135°06'2 2.2
2018-Jul-12 01:55N 34°09' E 135°05'4 9.9
2018-Jul-12 01:30N 34°13' E 135°08'1 1.7
2018-Jul-12 00:58N 34°13' E 135°09'0 0.0
2018-Jul-12 00:28N 34°13' E 135°09'0 0.1
2018-Jul-12 00:00N 34°13' E 135°09'3 6.2
2018-Jul-11 23:28N 34°11' E 135°07'2 0.1
2018-Jul-11 00:53N 34°13' E 135°07'2 3.7
2018-Jul-11 00:28N 34°13' E 135°09'1 2.7
2018-Jul-11 00:00N 34°13' E 135°08'0 0.2
2018-Jul-10 22:33N 34°13' E 135°08'0 7.1
2018-Jul-10 22:30N 34°13' E 135°08'1 1.3
2018-Jul-10 21:59N 34°13' E 135°09'0 0.0
2018-Jul-09 04:43N 34°13' E 135°09'1 6.4
2018-Jul-09 04:30N 34°13' E 135°07'6 1.3
2018-Jul-08 23:47N 34°07' E 135°07'711.7
2018-Jul-08 23:09N 34°14' E 135°05'1 8.0
2018-Jul-08 23:00N 34°14' E 135°07'0 1.0
2018-Jul-08 22:30N 34°14' E 135°07'2 3.2
2018-Jul-08 22:00N 34°14' E 135°06'2 3.7
2018-Jul-08 21:30N 34°13' E 135°06'2 3.7
2018-Jul-08 20:59N 34°14' E 135°08'1 1.3
2018-Jul-08 20:30N 34°14' E 135°07'2 3.9
2018-Jul-08 20:00N 34°13' E 135°09'1 0.1
2018-Jul-08 08:51N 34°13' E 135°08'  

Dump ship's entire track history